sensor_id;sensor_type;location;lat;lon;timestamp;pressure;altitude;pressure_sealevel;temperature;humidity
44675;BME280;30388;52.038;-1.478;2023-03-23T00:01:44;65227.36;;;5.48;100.00
44675;BME280;30388;52.038;-1.478;2023-03-23T00:04:11;65265.19;;;6.18;100.00
44675;BME280;30388;52.038;-1.478;2023-03-23T00:06:38;65286.47;;;6.22;100.00
44675;BME280;30388;52.038;-1.478;2023-03-23T00:09:05;65255.00;;;6.04;100.00
44675;BME280;30388;52.038;-1.478;2023-03-23T00:11:33;65219.67;;;5.82;100.00
44675;BME280;30388;52.038;-1.478;2023-03-23T00:14:01;65238.38;;;5.61;100.00
44675;BME280;30388;52.038;-1.478;2023-03-23T00:16:31;65251.70;;;5.78;100.00
44675;BME280;30388;52.038;-1.478;2023-03-23T00:19:00;65286.40;;;6.23;100.00
44675;BME280;30388;52.038;-1.478;2023-03-23T00:21:33;65221.41;;;5.62;100.00
44675;BME280;30388;52.038;-1.478;2023-03-23T00:24:04;65220.03;;;5.61;100.00
44675;BME280;30388;52.038;-1.478;2023-03-23T00:26:32;65259.04;;;5.88;100.00
44675;BME280;30388;52.038;-1.478;2023-03-23T00:29:00;65188.33;;;5.42;100.00
44675;BME280;30388;52.038;-1.478;2023-03-23T00:31:28;65253.77;;;5.81;100.00
44675;BME280;30388;52.038;-1.478;2023-03-23T00:33:55;65210.46;;;5.26;100.00
44675;BME280;30388;52.038;-1.478;2023-03-23T00:36:22;65229.95;;;5.72;100.00
44675;BME280;30388;52.038;-1.478;2023-03-23T00:38:51;65248.96;;;5.74;100.00
44675;BME280;30388;52.038;-1.478;2023-03-23T00:41:18;65257.43;;;5.58;100.00
44675;BME280;30388;52.038;-1.478;2023-03-23T00:43:45;65269.00;;;5.73;100.00
44675;BME280;30388;52.038;-1.478;2023-03-23T00:46:13;65309.28;;;6.03;100.00
44675;BME280;30388;52.038;-1.478;2023-03-23T00:48:40;65202.95;;;5.38;100.00
44675;BME280;30388;52.038;-1.478;2023-03-23T00:51:07;65241.39;;;5.65;100.00
44675;BME280;30388;52.038;-1.478;2023-03-23T00:53:34;65175.57;;;5.03;100.00
44675;BME280;30388;52.038;-1.478;2023-03-23T00:56:01;65249.25;;;5.75;100.00
44675;BME280;30388;52.038;-1.478;2023-03-23T00:58:29;65239.58;;;5.63;100.00
44675;BME280;30388;52.038;-1.478;2023-03-23T01:00:57;65147.29;;;4.90;100.00
44675;BME280;30388;52.038;-1.478;2023-03-23T01:03:24;65162.73;;;5.09;100.00
44675;BME280;30388;52.038;-1.478;2023-03-23T01:05:52;65203.82;;;5.40;100.00
44675;BME280;30388;52.038;-1.478;2023-03-23T01:08:20;65143.72;;;4.84;100.00
44675;BME280;30388;52.038;-1.478;2023-03-23T01:10:47;65195.41;;;5.51;100.00
44675;BME280;30388;52.038;-1.478;2023-03-23T01:13:16;65221.72;;;5.40;100.00
44675;BME280;30388;52.038;-1.478;2023-03-23T01:15:43;65187.04;;;5.18;100.00
44675;BME280;30388;52.038;-1.478;2023-03-23T01:18:12;65175.28;;;5.26;100.00
44675;BME280;30388;52.038;-1.478;2023-03-23T01:20:40;65135.98;;;4.75;100.00
44675;BME280;30388;52.038;-1.478;2023-03-23T01:23:07;65127.73;;;4.65;100.00
44675;BME280;30388;52.038;-1.478;2023-03-23T01:25:35;65126.16;;;4.63;100.00
44675;BME280;30388;52.038;-1.478;2023-03-23T01:28:03;65200.13;;;5.34;100.00
44675;BME280;30388;52.038;-1.478;2023-03-23T01:30:31;65168.36;;;5.18;100.00
44675;BME280;30388;52.038;-1.478;2023-03-23T01:32:58;65242.97;;;5.41;100.00
44675;BME280;30388;52.038;-1.478;2023-03-23T01:35:25;65174.44;;;4.80;100.00
44675;BME280;30388;52.038;-1.478;2023-03-23T01:37:53;65209.81;;;5.24;100.00
44675;BME280;30388;52.038;-1.478;2023-03-23T01:40:20;65240.42;;;5.65;100.00
44675;BME280;30388;52.038;-1.478;2023-03-23T01:42:47;65203.61;;;5.17;100.00
44675;BME280;30388;52.038;-1.478;2023-03-23T01:45:32;65176.48;;;4.82;100.00
44675;BME280;30388;52.038;-1.478;2023-03-23T01:48:07;65178.02;;;5.29;100.00
44675;BME280;30388;52.038;-1.478;2023-03-23T01:50:40;65220.55;;;5.38;100.00
44675;BME280;30388;52.038;-1.478;2023-03-23T01:53:10;65257.84;;;5.85;100.00
44675;BME280;30388;52.038;-1.478;2023-03-23T01:55:40;65223.44;;;4.94;100.00
44675;BME280;30388;52.038;-1.478;2023-03-23T01:58:09;65219.06;;;5.37;100.00
44675;BME280;30388;52.038;-1.478;2023-03-23T02:00:38;65190.84;;;5.23;100.00
44675;BME280;30388;52.038;-1.478;2023-03-23T02:03:05;65236.44;;;5.58;100.00
44675;BME280;30388;52.038;-1.478;2023-03-23T02:05:36;65222.02;;;5.41;100.00
44675;BME280;30388;52.038;-1.478;2023-03-23T02:08:08;65228.60;;;5.49;100.00
44675;BME280;30388;52.038;-1.478;2023-03-23T02:10:37;65225.72;;;5.45;100.00
44675;BME280;30388;52.038;-1.478;2023-03-23T02:13:07;65223.72;;;5.43;100.00
44675;BME280;30388;52.038;-1.478;2023-03-23T02:15:42;65275.92;;;6.10;100.00
44675;BME280;30388;52.038;-1.478;2023-03-23T02:18:20;65256.76;;;5.36;100.00
44675;BME280;30388;52.038;-1.478;2023-03-23T02:21:11;65313.25;;;6.07;100.00
44675;BME280;30388;52.038;-1.478;2023-03-23T02:23:52;65301.42;;;5.66;100.00
44675;BME280;30388;52.038;-1.478;2023-03-23T02:26:38;65202.71;;;5.16;100.00
44675;BME280;30388;52.038;-1.478;2023-03-23T02:29:23;65235.72;;;5.57;100.00
44675;BME280;30388;52.038;-1.478;2023-03-23T02:32:04;65231.76;;;5.04;100.00
44675;BME280;30388;52.038;-1.478;2023-03-23T02:34:41;65286.20;;;5.74;100.00
44675;BME280;30388;52.038;-1.478;2023-03-23T02:37:13;65189.55;;;4.99;100.00
44675;BME280;30388;52.038;-1.478;2023-03-23T02:39:44;65197.01;;;5.08;100.00
44675;BME280;30388;52.038;-1.478;2023-03-23T02:42:13;65153.82;;;4.77;100.00
44675;BME280;30388;52.038;-1.478;2023-03-23T02:44:44;65227.06;;;5.47;100.00
44675;BME280;30388;52.038;-1.478;2023-03-23T02:47:16;65226.86;;;4.97;100.00
44675;BME280;30388;52.038;-1.478;2023-03-23T02:49:47;65230.22;;;5.51;100.00
44675;BME280;30388;52.038;-1.478;2023-03-23T02:52:19;65264.62;;;5.45;100.00
44675;BME280;30388;52.038;-1.478;2023-03-23T02:54:50;65281.75;;;5.90;100.00
44675;BME280;30388;52.038;-1.478;2023-03-23T02:57:20;65297.51;;;6.10;100.00
44675;BME280;30388;52.038;-1.478;2023-03-23T02:59:48;65208.83;;;5.23;100.00
44675;BME280;30388;52.038;-1.478;2023-03-23T03:02:17;65256.39;;;5.35;100.00
44675;BME280;30388;52.038;-1.478;2023-03-23T03:04:53;65231.78;;;5.52;100.00
44675;BME280;30388;52.038;-1.478;2023-03-23T03:07:31;65218.53;;;5.36;100.00
44675;BME280;30388;52.038;-1.478;2023-03-23T03:10:02;65216.57;;;5.33;100.00
44675;BME280;30388;52.038;-1.478;2023-03-23T03:12:36;65265.86;;;5.69;100.00
44675;BME280;30388;52.038;-1.478;2023-03-23T03:15:17;65235.49;;;5.31;100.00
44675;BME280;30388;52.038;-1.478;2023-03-23T03:17:53;65271.45;;;5.28;100.00
44675;BME280;30388;52.038;-1.478;2023-03-23T03:20:25;65231.11;;;5.03;100.00
44675;BME280;30388;52.038;-1.478;2023-03-23T03:22:53;65268.39;;;5.51;100.00
44675;BME280;30388;52.038;-1.478;2023-03-23T03:25:21;65244.85;;;5.21;100.00
44675;BME280;30388;52.038;-1.478;2023-03-23T03:27:48;65231.94;;;5.04;100.00
44675;BME280;30388;52.038;-1.478;2023-03-23T03:30:21;65205.99;;;5.21;100.00
44675;BME280;30388;52.038;-1.478;2023-03-23T03:32:51;65256.24;;;5.58;100.00
44675;BME280;30388;52.038;-1.478;2023-03-23T03:35:21;65250.14;;;5.27;100.00
44675;BME280;30388;52.038;-1.478;2023-03-23T03:37:48;65130.53;;;4.68;100.00
44675;BME280;30388;52.038;-1.478;2023-03-23T03:40:18;65202.98;;;5.16;100.00
44675;BME280;30388;52.038;-1.478;2023-03-23T03:42:46;65212.68;;;5.28;100.00
44675;BME280;30388;52.038;-1.478;2023-03-23T03:45:16;65286.76;;;5.74;100.00
44675;BME280;30388;52.038;-1.478;2023-03-23T03:47:44;65155.39;;;4.55;100.00
44675;BME280;30388;52.038;-1.478;2023-03-23T03:50:11;65244.33;;;5.42;100.00
44675;BME280;30388;52.038;-1.478;2023-03-23T03:52:39;65269.48;;;5.52;100.00
44675;BME280;30388;52.038;-1.478;2023-03-23T03:55:08;65210.19;;;4.76;100.00
44675;BME280;30388;52.038;-1.478;2023-03-23T03:57:35;65254.97;;;5.33;100.00
44675;BME280;30388;52.038;-1.478;2023-03-23T04:00:04;65265.64;;;5.47;100.00
44675;BME280;30388;52.038;-1.478;2023-03-23T04:02:32;65222.47;;;4.92;100.00
44675;BME280;30388;52.038;-1.478;2023-03-23T04:04:59;65194.19;;;5.05;100.00
44675;BME280;30388;52.038;-1.478;2023-03-23T04:07:26;65252.44;;;5.79;100.00
44675;BME280;30388;52.038;-1.478;2023-03-23T04:09:54;65238.29;;;5.61;100.00
44675;BME280;30388;52.038;-1.478;2023-03-23T04:12:21;65235.94;;;5.32;100.00
44675;BME280;30388;52.038;-1.478;2023-03-23T04:14:48;65227.12;;;5.47;100.00
44675;BME280;30388;52.038;-1.478;2023-03-23T04:17:16;65256.21;;;5.58;100.00
44675;BME280;30388;52.038;-1.478;2023-03-23T04:19:43;65240.84;;;5.14;100.00
44675;BME280;30388;52.038;-1.478;2023-03-23T04:22:10;65236.60;;;5.33;100.00
44675;BME280;30388;52.038;-1.478;2023-03-23T04:24:38;65260.06;;;5.40;100.00
44675;BME280;30388;52.038;-1.478;2023-03-23T04:27:05;65213.43;;;5.29;100.00
44675;BME280;30388;52.038;-1.478;2023-03-23T04:29:32;65222.93;;;5.42;100.00
44675;BME280;30388;52.038;-1.478;2023-03-23T04:31:59;65252.57;;;5.79;100.00
44675;BME280;30388;52.038;-1.478;2023-03-23T04:34:27;65208.23;;;4.96;100.00
44675;BME280;30388;52.038;-1.478;2023-03-23T04:36:54;65214.22;;;5.04;100.00
44675;BME280;30388;52.038;-1.478;2023-03-23T04:39:21;65262.58;;;5.43;100.00
44675;BME280;30388;52.038;-1.478;2023-03-23T04:41:49;65249.93;;;5.27;100.00
44675;BME280;30388;52.038;-1.478;2023-03-23T04:44:17;65228.48;;;5.23;100.00
44675;BME280;30388;52.038;-1.478;2023-03-23T04:46:45;65221.52;;;5.13;100.00
44675;BME280;30388;52.038;-1.478;2023-03-23T04:49:13;65211.78;;;5.27;100.00
44675;BME280;30388;52.038;-1.478;2023-03-23T04:51:41;65178.64;;;4.84;100.00
44675;BME280;30388;52.038;-1.478;2023-03-23T04:54:09;65146.80;;;4.67;100.00
44675;BME280;30388;52.038;-1.478;2023-03-23T04:56:36;65110.13;;;4.20;100.00
44675;BME280;30388;52.038;-1.478;2023-03-23T04:59:04;65101.13;;;4.31;100.00
44675;BME280;30388;52.038;-1.478;2023-03-23T05:01:31;65079.98;;;4.05;100.00
44675;BME280;30388;52.038;-1.478;2023-03-23T05:03:58;65112.76;;;4.45;100.00
44675;BME280;30388;52.038;-1.478;2023-03-23T05:06:25;65084.08;;;4.09;100.00
44675;BME280;30388;52.038;-1.478;2023-03-23T05:08:53;65099.25;;;4.06;100.00
44675;BME280;30388;52.038;-1.478;2023-03-23T05:11:20;65132.59;;;4.72;100.00
44675;BME280;30388;52.038;-1.478;2023-03-23T05:13:47;65138.72;;;4.77;100.00
44675;BME280;30388;52.038;-1.478;2023-03-23T05:16:15;65149.49;;;4.48;100.00
44675;BME280;30388;52.038;-1.478;2023-03-23T05:18:42;65097.93;;;4.27;100.00
44675;BME280;30388;52.038;-1.478;2023-03-23T05:21:10;65153.02;;;4.75;100.00
44675;BME280;30388;52.038;-1.478;2023-03-23T05:23:37;65147.37;;;4.68;100.00
44675;BME280;30388;52.038;-1.478;2023-03-23T05:26:04;65174.64;;;4.80;100.00
44675;BME280;30388;52.038;-1.478;2023-03-23T05:28:31;65099.77;;;4.30;100.00
44675;BME280;30388;52.038;-1.478;2023-03-23T05:30:59;65122.79;;;4.36;100.00
44675;BME280;30388;52.038;-1.478;2023-03-23T05:33:26;65089.42;;;4.17;100.00
44675;BME280;30388;52.038;-1.478;2023-03-23T05:35:53;65088.18;;;3.69;100.00
44675;BME280;30388;52.038;-1.478;2023-03-23T05:38:21;65095.58;;;3.79;100.00
44675;BME280;30388;52.038;-1.478;2023-03-23T05:40:49;65099.59;;;4.07;100.00
44675;BME280;30388;52.038;-1.478;2023-03-23T05:43:17;65139.38;;;4.35;100.00
44675;BME280;30388;52.038;-1.478;2023-03-23T05:45:44;65128.18;;;4.66;100.00
44675;BME280;30388;52.038;-1.478;2023-03-23T05:48:12;65174.80;;;4.80;100.00
44675;BME280;30388;52.038;-1.478;2023-03-23T05:50:39;65120.41;;;4.33;100.00
44675;BME280;30388;52.038;-1.478;2023-03-23T05:53:06;65136.19;;;4.75;100.00
44675;BME280;30388;52.038;-1.478;2023-03-23T05:55:34;65136.84;;;4.54;100.00
44675;BME280;30388;52.038;-1.478;2023-03-23T05:58:03;65158.06;;;4.59;100.00
44675;BME280;30388;52.038;-1.478;2023-03-23T06:00:31;65131.89;;;4.26;100.00
44675;BME280;30388;52.038;-1.478;2023-03-23T06:02:58;65129.67;;;4.44;100.00
44675;BME280;30388;52.038;-1.478;2023-03-23T06:05:26;65155.67;;;4.56;100.00
44675;BME280;30388;52.038;-1.478;2023-03-23T06:07:53;65149.87;;;4.48;100.00
44675;BME280;30388;52.038;-1.478;2023-03-23T06:10:20;65169.81;;;4.74;100.00
44675;BME280;30388;52.038;-1.478;2023-03-23T06:12:50;65201.82;;;5.36;100.00
44675;BME280;30388;52.038;-1.478;2023-03-23T06:15:18;65158.18;;;4.59;100.00
44675;BME280;30388;52.038;-1.478;2023-03-23T06:17:45;65154.67;;;4.78;100.00
44675;BME280;30388;52.038;-1.478;2023-03-23T06:20:12;65158.36;;;5.04;100.00
44675;BME280;30388;52.038;-1.478;2023-03-23T06:22:40;65128.94;;;4.66;100.00
44675;BME280;30388;52.038;-1.478;2023-03-23T06:25:09;65179.04;;;4.86;100.00
44675;BME280;30388;52.038;-1.478;2023-03-23T06:27:36;65252.58;;;5.30;100.00
44675;BME280;30388;52.038;-1.478;2023-03-23T06:30:05;65262.17;;;5.42;100.00
44675;BME280;30388;52.038;-1.478;2023-03-23T06:32:33;65263.18;;;5.44;100.00
44675;BME280;30388;52.038;-1.478;2023-03-23T06:35:00;65253.36;;;5.53;100.00
44675;BME280;30388;52.038;-1.478;2023-03-23T06:37:28;65287.42;;;5.75;100.00
44675;BME280;30388;52.038;-1.478;2023-03-23T06:39:55;65227.87;;;5.22;100.00
44675;BME280;30388;52.038;-1.478;2023-03-23T06:42:23;65222.87;;;4.92;100.00
44675;BME280;30388;52.038;-1.478;2023-03-23T06:44:51;65317.86;;;6.13;100.00
44675;BME280;30388;52.038;-1.478;2023-03-23T06:47:19;65308.11;;;6.01;100.00
44675;BME280;30388;52.038;-1.478;2023-03-23T06:49:46;65362.22;;;6.43;100.00
44675;BME280;30388;52.038;-1.478;2023-03-23T06:52:13;65359.72;;;6.41;100.00
44675;BME280;30388;52.038;-1.478;2023-03-23T06:54:41;65351.65;;;6.07;100.00
44675;BME280;30388;52.038;-1.478;2023-03-23T06:57:08;65195.28;;;5.07;100.00
44675;BME280;30388;52.038;-1.478;2023-03-23T06:59:35;65321.63;;;6.18;100.00
44675;BME280;30388;52.038;-1.478;2023-03-23T07:02:02;65308.72;;;6.02;100.00
44675;BME280;30388;52.038;-1.478;2023-03-23T07:04:29;65271.49;;;6.04;100.00
44675;BME280;30388;52.038;-1.478;2023-03-23T07:06:57;65361.97;;;6.69;100.00
44675;BME280;30388;52.038;-1.478;2023-03-23T07:09:25;65375.63;;;6.38;100.00
44675;BME280;30388;52.038;-1.478;2023-03-23T07:11:51;65331.79;;;6.05;100.00
44675;BME280;30388;52.038;-1.478;2023-03-23T07:14:18;65345.53;;;6.48;100.00
44675;BME280;30388;52.038;-1.478;2023-03-23T07:16:46;65286.12;;;6.21;100.00
44675;BME280;30388;52.038;-1.478;2023-03-23T07:19:13;65318.34;;;6.14;100.00
44675;BME280;30388;52.038;-1.478;2023-03-23T07:21:40;65287.08;;;5.97;100.00
44675;BME280;30388;52.038;-1.478;2023-03-23T07:24:11;65314.65;;;6.31;100.00
44675;BME280;30388;52.038;-1.478;2023-03-23T07:26:38;65345.52;;;6.22;100.00
44675;BME280;30388;52.038;-1.478;2023-03-23T07:29:05;65336.99;;;6.38;100.00
44675;BME280;30388;52.038;-1.478;2023-03-23T07:31:32;65323.33;;;6.21;100.00
44675;BME280;30388;52.038;-1.478;2023-03-23T07:34:00;65366.26;;;6.75;100.00
44675;BME280;30388;52.038;-1.478;2023-03-23T07:36:27;65397.78;;;7.15;100.00
44675;BME280;30388;52.038;-1.478;2023-03-23T07:38:54;65383.59;;;6.71;100.00
44675;BME280;30388;52.038;-1.478;2023-03-23T07:41:21;65396.83;;;6.87;100.00
44675;BME280;30388;52.038;-1.478;2023-03-23T07:43:48;65436.13;;;7.37;100.00
44675;BME280;30388;52.038;-1.478;2023-03-23T07:46:16;65340.98;;;6.43;100.00
44675;BME280;30388;52.038;-1.478;2023-03-23T07:48:44;65394.94;;;6.86;100.00
44675;BME280;30388;52.038;-1.478;2023-03-23T07:51:17;65442.78;;;7.45;100.00
44675;BME280;30388;52.038;-1.478;2023-03-23T07:53:44;65437.82;;;7.40;100.00
44675;BME280;30388;52.038;-1.478;2023-03-23T07:56:12;65421.51;;;7.19;100.00
44675;BME280;30388;52.038;-1.478;2023-03-23T07:58:38;65478.87;;;7.69;100.00
44675;BME280;30388;52.038;-1.478;2023-03-23T08:01:06;65488.41;;;7.59;100.00
44675;BME280;30388;52.038;-1.478;2023-03-23T08:03:33;65477.66;;;7.68;100.00
44675;BME280;30388;52.038;-1.478;2023-03-23T08:06:00;65468.62;;;7.56;100.00
44675;BME280;30388;52.038;-1.478;2023-03-23T08:08:27;65479.77;;;7.71;100.00
44675;BME280;30388;52.038;-1.478;2023-03-23T08:10:54;65466.84;;;7.54;100.00
44675;BME280;30388;52.038;-1.478;2023-03-23T08:13:22;65518.38;;;8.19;100.00
44675;BME280;30388;52.038;-1.478;2023-03-23T08:15:49;65530.90;;;8.12;100.00
44675;BME280;30388;52.038;-1.478;2023-03-23T08:18:17;65526.03;;;8.06;100.00
44675;BME280;30388;52.038;-1.478;2023-03-23T08:20:44;65530.83;;;8.35;100.00
44675;BME280;30388;52.038;-1.478;2023-03-23T08:23:11;65465.73;;;7.52;100.00
44675;BME280;30388;52.038;-1.478;2023-03-23T08:25:38;65475.02;;;7.86;100.00
44675;BME280;30388;52.038;-1.478;2023-03-23T08:28:05;65420.84;;;7.18;100.00
44675;BME280;30388;52.038;-1.478;2023-03-23T08:30:32;65534.91;;;8.40;100.00
44675;BME280;30388;52.038;-1.478;2023-03-23T08:33:00;65452.43;;;7.84;100.00
44675;BME280;30388;52.038;-1.478;2023-03-23T08:35:28;65489.57;;;7.82;100.00
44675;BME280;30388;52.038;-1.478;2023-03-23T08:37:55;65508.82;;;8.30;100.00
44675;BME280;30388;52.038;-1.478;2023-03-23T08:40:23;65531.72;;;8.15;100.00
44675;BME280;30388;52.038;-1.478;2023-03-23T08:42:52;65622.67;;;9.02;100.00
44675;BME280;30388;52.038;-1.478;2023-03-23T08:45:21;65648.18;;;9.34;100.00
44675;BME280;30388;52.038;-1.478;2023-03-23T08:47:49;65607.89;;;9.10;100.00
44675;BME280;30388;52.038;-1.478;2023-03-23T08:50:17;65642.80;;;9.27;100.00
44675;BME280;30388;52.038;-1.478;2023-03-23T08:52:44;65621.45;;;9.00;100.00
44675;BME280;30388;52.038;-1.478;2023-03-23T08:55:12;65630.57;;;9.38;100.00
44675;BME280;30388;52.038;-1.478;2023-03-23T08:57:39;65559.03;;;8.70;100.00
44675;BME280;30388;52.038;-1.478;2023-03-23T09:00:08;65598.32;;;8.72;100.00
44675;BME280;30388;52.038;-1.478;2023-03-23T09:02:36;65583.57;;;8.80;100.00
44675;BME280;30388;52.038;-1.478;2023-03-23T09:05:05;65581.34;;;8.99;100.00
44675;BME280;30388;52.038;-1.478;2023-03-23T09:07:32;65591.79;;;8.89;100.00
44675;BME280;30388;52.038;-1.478;2023-03-23T09:09:59;65561.31;;;8.73;100.00
44675;BME280;30388;52.038;-1.478;2023-03-23T09:12:26;65574.55;;;8.90;100.00
44675;BME280;30388;52.038;-1.478;2023-03-23T09:14:53;65554.03;;;8.64;100.00
44675;BME280;30388;52.038;-1.478;2023-03-23T09:17:21;65626.79;;;9.34;100.00
44675;BME280;30388;52.038;-1.478;2023-03-23T09:19:48;65616.57;;;9.43;100.00
44675;BME280;30388;52.038;-1.478;2023-03-23T09:22:15;65606.75;;;8.81;100.00
44675;BME280;30388;52.038;-1.478;2023-03-23T09:24:42;65639.61;;;9.24;100.00
44675;BME280;30388;52.038;-1.478;2023-03-23T09:27:09;65644.88;;;9.30;100.00
44675;BME280;30388;52.038;-1.478;2023-03-23T09:29:36;65548.31;;;8.57;100.00
44675;BME280;30388;52.038;-1.478;2023-03-23T09:32:03;65612.32;;;8.89;100.00
44675;BME280;30388;52.038;-1.478;2023-03-23T09:34:30;65614.39;;;9.40;100.00
44675;BME280;30388;52.038;-1.478;2023-03-23T09:36:57;65641.54;;;9.25;100.00
44675;BME280;30388;52.038;-1.478;2023-03-23T09:39:25;65695.50;;;9.93;100.00
44675;BME280;30388;52.038;-1.478;2023-03-23T09:42:02;65740.08;;;10.28;100.00
44675;BME280;30388;52.038;-1.478;2023-03-23T09:44:42;65691.59;;;9.67;100.00
44675;BME280;30388;52.038;-1.478;2023-03-23T09:47:22;65649.20;;;9.35;100.00
44675;BME280;30388;52.038;-1.478;2023-03-23T09:49:56;65647.21;;;9.33;100.00
44675;BME280;30388;52.038;-1.478;2023-03-23T09:52:29;65648.79;;;9.35;100.00
44675;BME280;30388;52.038;-1.478;2023-03-23T09:55:00;65673.45;;;9.67;100.00
44675;BME280;30388;52.038;-1.478;2023-03-23T09:57:32;65677.27;;;9.71;100.00
44675;BME280;30388;52.038;-1.478;2023-03-23T10:00:11;65684.26;;;9.80;100.00
44675;BME280;30388;52.038;-1.478;2023-03-23T10:02:43;65711.15;;;9.91;100.00
44675;BME280;30388;52.038;-1.478;2023-03-23T10:05:25;65678.44;;;9.73;100.00
44675;BME280;30388;52.038;-1.478;2023-03-23T10:07:54;65710.88;;;10.13;100.00
44675;BME280;30388;52.038;-1.478;2023-03-23T10:10:26;65753.27;;;10.45;100.00
44675;BME280;30388;52.038;-1.478;2023-03-23T10:12:58;65721.13;;;10.04;100.00
44675;BME280;30388;52.038;-1.478;2023-03-23T10:15:30;65774.78;;;10.73;100.00
44675;BME280;30388;52.038;-1.478;2023-03-23T10:18:00;65765.63;;;10.38;100.00
44675;BME280;30388;52.038;-1.478;2023-03-23T10:20:36;65747.85;;;10.37;100.00
44675;BME280;30388;52.038;-1.478;2023-03-23T10:23:13;65803.05;;;10.37;100.00
44675;BME280;30388;52.038;-1.478;2023-03-23T10:25:43;65730.31;;;9.94;100.00
44675;BME280;30388;52.038;-1.478;2023-03-23T10:28:13;65763.67;;;10.57;100.00
44675;BME280;30388;52.038;-1.478;2023-03-23T10:30:45;65739.00;;;10.49;100.00
44675;BME280;30388;52.038;-1.478;2023-03-23T10:33:18;65684.62;;;9.58;100.00
44675;BME280;30388;52.038;-1.478;2023-03-23T10:35:50;65794.77;;;10.75;100.00
44675;BME280;30388;52.038;-1.478;2023-03-23T10:38:22;65919.36;;;11.83;100.00
44675;BME280;30388;52.038;-1.478;2023-03-23T10:40:54;65897.93;;;11.30;100.00
44675;BME280;30388;52.038;-1.478;2023-03-23T10:43:22;65812.40;;;10.98;100.00
44675;BME280;30388;52.038;-1.478;2023-03-23T10:45:55;65873.68;;;11.26;100.00
44675;BME280;30388;52.038;-1.478;2023-03-23T10:48:28;65810.44;;;10.95;100.00
44675;BME280;30388;52.038;-1.478;2023-03-23T10:50:59;65919.32;;;11.84;100.00
44675;BME280;30388;52.038;-1.478;2023-03-23T10:53:32;65877.36;;;11.53;100.00
44675;BME280;30388;52.038;-1.478;2023-03-23T10:56:00;65882.91;;;11.60;100.00
44675;BME280;30388;52.038;-1.478;2023-03-23T10:58:30;65991.99;;;12.49;100.00
44675;BME280;30388;52.038;-1.478;2023-03-23T11:00:59;65984.81;;;12.18;100.00
44675;BME280;30388;52.038;-1.478;2023-03-23T11:03:39;65973.47;;;12.52;100.00
44675;BME280;30388;52.038;-1.478;2023-03-23T11:06:08;66071.36;;;13.27;100.00
44675;BME280;30388;52.038;-1.478;2023-03-23T11:08:46;65910.77;;;11.73;100.00
44675;BME280;30388;52.038;-1.478;2023-03-23T11:11:17;65837.34;;;11.29;100.00
44675;BME280;30388;52.038;-1.478;2023-03-23T11:13:47;65858.74;;;11.56;100.00
44675;BME280;30388;52.038;-1.478;2023-03-23T11:16:23;65842.14;;;10.86;100.00
44675;BME280;30388;52.038;-1.478;2023-03-23T11:18:51;65858.47;;;11.07;100.00
44675;BME280;30388;52.038;-1.478;2023-03-23T11:21:21;65738.51;;;10.04;100.00
44675;BME280;30388;52.038;-1.478;2023-03-23T11:23:51;65792.32;;;10.72;100.00
44675;BME280;30388;52.038;-1.478;2023-03-23T11:26:24;65804.44;;;10.87;100.00
44675;BME280;30388;52.038;-1.478;2023-03-23T11:28:55;65815.81;;;10.53;100.00
44675;BME280;30388;52.038;-1.478;2023-03-23T11:31:24;65875.22;;;11.51;100.00
44675;BME280;30388;52.038;-1.478;2023-03-23T11:33:57;65994.59;;;12.78;100.00
44675;BME280;30388;52.038;-1.478;2023-03-23T11:36:31;66029.14;;;12.74;100.00
44675;BME280;30388;52.038;-1.478;2023-03-23T11:38:59;66030.23;;;12.97;100.00
44675;BME280;30388;52.038;-1.478;2023-03-23T11:41:33;65965.44;;;12.42;100.00
44675;BME280;30388;52.038;-1.478;2023-03-23T11:44:09;65960.70;;;12.37;100.00
44675;BME280;30388;52.038;-1.478;2023-03-23T11:46:45;65977.98;;;12.57;100.00
44675;BME280;30388;52.038;-1.478;2023-03-23T11:49:22;65907.59;;;11.69;100.00
44675;BME280;30388;52.038;-1.478;2023-03-23T11:51:55;65963.41;;;12.39;100.00
44675;BME280;30388;52.038;-1.478;2023-03-23T11:54:29;65970.60;;;12.48;100.00
44675;BME280;30388;52.038;-1.478;2023-03-23T11:56:57;65944.43;;;11.89;100.00
44675;BME280;30388;52.038;-1.478;2023-03-23T11:59:28;65872.76;;;11.74;100.00
44675;BME280;30388;52.038;-1.478;2023-03-23T12:02:03;65972.13;;;12.51;100.00
44675;BME280;30388;52.038;-1.478;2023-03-23T12:04:52;66070.72;;;13.75;100.00
44675;BME280;30388;52.038;-1.478;2023-03-23T12:07:35;66141.93;;;13.67;100.00
44675;BME280;30388;52.038;-1.478;2023-03-23T12:10:15;66171.57;;;14.31;100.00
44675;BME280;30388;52.038;-1.478;2023-03-23T12:12:51;66082.96;;;13.64;100.00
44675;BME280;30388;52.038;-1.478;2023-03-23T12:15:25;66075.80;;;13.54;100.00
44675;BME280;30388;52.038;-1.478;2023-03-23T12:18:01;66115.35;;;13.82;100.00
44675;BME280;30388;52.038;-1.478;2023-03-23T12:20:40;66163.09;;;14.20;100.00
44675;BME280;30388;52.038;-1.478;2023-03-23T12:23:19;66186.51;;;14.23;100.00
44675;BME280;30388;52.038;-1.478;2023-03-23T12:26:28;66048.83;;;12.98;100.00
44675;BME280;30388;52.038;-1.478;2023-03-23T12:29:18;66112.96;;;13.30;100.00
44675;BME280;30388;52.038;-1.478;2023-03-23T12:31:59;66119.21;;;13.65;100.00
44675;BME280;30388;52.038;-1.478;2023-03-23T12:34:37;66004.43;;;12.92;100.00
44675;BME280;30388;52.038;-1.478;2023-03-23T12:37:21;66038.48;;;13.07;100.00
44675;BME280;30388;52.038;-1.478;2023-03-23T12:40:00;66062.07;;;13.15;100.00
44675;BME280;30388;52.038;-1.478;2023-03-23T12:42:37;66014.56;;;12.56;100.00
44675;BME280;30388;52.038;-1.478;2023-03-23T12:45:18;66030.35;;;12.76;100.00
44675;BME280;30388;52.038;-1.478;2023-03-23T12:47:49;65982.04;;;12.14;100.00
44675;BME280;30388;52.038;-1.478;2023-03-23T12:50:23;65708.10;;;9.67;100.00
44675;BME280;30388;52.038;-1.478;2023-03-23T12:52:57;65565.18;;;8.30;100.00
44675;BME280;30388;52.038;-1.478;2023-03-23T12:55:32;65687.12;;;9.84;100.00
44675;BME280;30388;52.038;-1.478;2023-03-23T12:58:04;65652.64;;;9.18;100.00
44675;BME280;30388;52.038;-1.478;2023-03-23T13:00:48;65660.49;;;9.28;100.00
44675;BME280;30388;52.038;-1.478;2023-03-23T13:03:23;65699.63;;;9.78;100.00